Terminal Aerodrome Forecast
Issued by NWS

Current Version | Previous Version | Graphics & Text | Print | Product List | Glossary On
Versions: 1 2 3 4 5 6 7 8 9 10 11 12 13 14 15 16 17 18 19 20 21 22 23 24 25 26 27 28
000
FTUS41 KILN 032339 AAA
TAFLCK
TAF AMD
KLCK 032339Z 0400/0424 16004KT P6SM VCTS SCT060CB
      TEMPO 0400/0402 3SM TSRA OVC035CB
     FM040500 VRB03KT 5SM BR VCTS SCT040CB BKN120
      TEMPO 0408/0412 1SM BR
     FM041300 21007KT P6SM VCTS BKN040CB=

USA.gov is the U.S. government's official web portal to all federal, state and local government web resources and services.